الصفحة الرئيسية
METAR-TAF:

METAR-TAF

مطار :

Shearwater, نوفا سكوشا, كندا

دائرة عرض: 44-38N, خط طول: 063-30W, ارتفاع: 51 متر

مراقبة الطقس الحالي

تاريخ ووقت الإصدار 18ساعات و 31 دقيقة قبل الساعة 20:00UTC
ريح 16 عقدة من الغرب تتزايد حتى 23 عقدة
درجة الحرارة -6°درجة مئوية
الرطوبة 49%
ضغط 1029 hPa
الرؤية: 24.1 كم
غيوم قليلة على ارتفاع 5000 قدم

METAR: CYAW 012000Z 27016G23KT 15SM FEW050 M06/M15 A3038 RMK CU2 DENSITY ALT -2952FT LAST OBS /NEXT 041000 UTC SLP290

زمن: 10:31 (14:31 UTC)

توقعات

تاريخ ووقت الإصدار 20ساعات و 51 دقيقة قبل الساعة 17:40UTC
التوقعات صالحة من01 الساعة 18 UTC إلى 02 الساعة 06 UTC
ريح 20 عقدة من الغرب تتزايد حتى 30 عقدة
الرؤية: 10 كم
غيوم متفرقة على ارتفاع 4000 قدم
أصبح
من 01 الساعة 22 UTC إلى 01 الساعة 24 UTC
ريح 12 عقدة من الغرب تتزايد حتى 22 عقدة
أصبح
من 02 الساعة 00 UTC إلى 02 الساعة 02 UTC
ريح 8 عقدة من الغرب
من 02 الساعة 0400 UTC
ريح 7 عقدة من الغرب
الرؤية: 10 كم
سماء صافية

TAF: CYAW 011740Z 0118/0206 27020G30KT P6SM SCT040 BECMG 0122/0124 27012G22KT BECMG 0200/0202 27008KT FM020400 27007KT P6SM SKC RMK NXT FCST BY 020000Z

أرصاد الطقس والتوقعات من أكثر من 4000 مطار (تقارير الطقس للمطار METAR والتنبؤ بالطقس بالمطارTAF).

المحطات المتاحة هي النقط الصفراء والحمراء على الخريطة.

حرك المؤشر فوق النقطة لمعرفة اسم المحطة.

ثم انقر لمعرفة أرصاد وتوقعات الطقس.

لتغيير الخارطة: اضغط على الأزرار الخضراء مع رمز الصليب الأسود للتكبير. على الزر الأخضر مع شرطة للتصغير، أو على الأسهم الخضراء للخرائط المجاورة.


METAR-TAF: